sensor_id;sensor_type;location;lat;lon;timestamp;pressure;altitude;pressure_sealevel;temperature;humidity
50684;BME280;36654;45.042;38.994;2022-09-12T00:01:22;100377.66;;;20.22;59.61
50684;BME280;36654;45.042;38.994;2022-09-12T00:03:52;100330.50;;;19.84;60.00
50684;BME280;36654;45.042;38.994;2022-09-12T00:06:23;100360.00;;;20.14;59.98
50684;BME280;36654;45.042;38.994;2022-09-12T00:09:04;100374.31;;;20.14;60.56
50684;BME280;36654;45.042;38.994;2022-09-12T00:11:30;100364.78;;;20.06;60.56
50684;BME280;36654;45.042;38.994;2022-09-12T00:13:58;100343.69;;;19.92;60.66
50684;BME280;36654;45.042;38.994;2022-09-12T00:16:25;100364.00;;;20.02;60.58
50684;BME280;36654;45.042;38.994;2022-09-12T00:18:51;100367.47;;;20.06;60.71
50684;BME280;36654;45.042;38.994;2022-09-12T00:21:18;100366.63;;;20.03;60.89
50684;BME280;36654;45.042;38.994;2022-09-12T00:23:45;100365.28;;;19.90;60.99
50684;BME280;36654;45.042;38.994;2022-09-12T00:26:11;100362.72;;;19.87;61.26
50684;BME280;36654;45.042;38.994;2022-09-12T00:28:38;100376.16;;;19.87;61.53
50684;BME280;36654;45.042;38.994;2022-09-12T00:31:09;100376.31;;;19.82;61.96
50684;BME280;36654;45.042;38.994;2022-09-12T00:33:35;100370.25;;;19.76;62.09
50684;BME280;36654;45.042;38.994;2022-09-12T00:36:07;100380.16;;;19.74;62.24
50684;BME280;36654;45.042;38.994;2022-09-12T00:38:33;100382.78;;;19.77;62.33
50684;BME280;36654;45.042;38.994;2022-09-12T00:41:03;100381.09;;;19.73;62.24
50684;BME280;36654;45.042;38.994;2022-09-12T00:46:02;100377.75;;;19.65;62.86
50684;BME280;36654;45.042;38.994;2022-09-12T00:48:39;100373.38;;;19.60;63.35
50684;BME280;36654;45.042;38.994;2022-09-12T00:51:07;100302.25;;;19.14;63.43
50684;BME280;36654;45.042;38.994;2022-09-12T00:53:33;100364.03;;;19.44;63.59
50684;BME280;36654;45.042;38.994;2022-09-12T00:55:59;100378.22;;;19.49;63.72
50684;BME280;36654;45.042;38.994;2022-09-12T00:58:29;100358.75;;;19.41;63.81
50684;BME280;36654;45.042;38.994;2022-09-12T01:00:56;100363.25;;;19.40;64.06
50684;BME280;36654;45.042;38.994;2022-09-12T01:03:24;100369.41;;;19.44;63.76
50684;BME280;36654;45.042;38.994;2022-09-12T01:08:19;100371.09;;;19.48;63.60
50684;BME280;36654;45.042;38.994;2022-09-12T01:10:45;100361.09;;;19.52;63.74
50684;BME280;36654;45.042;38.994;2022-09-12T01:13:11;100367.38;;;19.52;63.81
50684;BME280;36654;45.042;38.994;2022-09-12T01:15:38;100360.13;;;19.54;63.59
50684;BME280;36654;45.042;38.994;2022-09-12T01:26:21;100343.50;;;19.42;64.03
50684;BME280;36654;45.042;38.994;2022-09-12T01:29:10;100346.06;;;19.46;63.98
50684;BME280;36654;45.042;38.994;2022-09-12T01:34:38;100341.16;;;19.31;64.30
50684;BME280;36654;45.042;38.994;2022-09-12T01:37:31;100352.00;;;19.28;65.09
50684;BME280;36654;45.042;38.994;2022-09-12T01:40:12;100336.25;;;19.15;65.17
50684;BME280;36654;45.042;38.994;2022-09-12T01:42:58;100332.63;;;19.16;65.51
50684;BME280;36654;45.042;38.994;2022-09-12T01:45:37;100318.56;;;19.08;65.74
50684;BME280;36654;45.042;38.994;2022-09-12T01:50:33;100323.94;;;19.08;65.60
50684;BME280;36654;45.042;38.994;2022-09-12T01:53:11;100330.75;;;19.20;65.71
50684;BME280;36654;45.042;38.994;2022-09-12T01:55:51;100327.09;;;19.23;65.62
50684;BME280;36654;45.042;38.994;2022-09-12T01:58:34;100279.38;;;19.01;65.55
50684;BME280;36654;45.042;38.994;2022-09-12T02:01:10;100332.16;;;19.32;65.14
50684;BME280;36654;45.042;38.994;2022-09-12T02:04:20;100328.50;;;19.34;64.91
50684;BME280;36654;45.042;38.994;2022-09-12T02:06:59;100326.78;;;19.32;64.77
50684;BME280;36654;45.042;38.994;2022-09-12T02:09:37;100327.47;;;19.38;64.80
50684;BME280;36654;45.042;38.994;2022-09-12T02:12:08;100328.44;;;19.37;64.65
50684;BME280;36654;45.042;38.994;2022-09-12T02:14:39;100329.03;;;19.47;64.65
50684;BME280;36654;45.042;38.994;2022-09-12T02:17:13;100322.91;;;19.42;64.66
50684;BME280;36654;45.042;38.994;2022-09-12T02:19:48;100335.50;;;19.40;64.72
50684;BME280;36654;45.042;38.994;2022-09-12T02:22:17;100335.63;;;19.37;65.01
50684;BME280;36654;45.042;38.994;2022-09-12T02:24:48;100332.97;;;19.35;64.81
50684;BME280;36654;45.042;38.994;2022-09-12T02:27:27;100335.69;;;19.34;64.94
50684;BME280;36654;45.042;38.994;2022-09-12T02:29:54;100319.88;;;19.25;64.94
50684;BME280;36654;45.042;38.994;2022-09-12T02:32:30;100342.00;;;19.33;65.09
50684;BME280;36654;45.042;38.994;2022-09-12T02:37:44;100330.25;;;19.37;65.06
50684;BME280;36654;45.042;38.994;2022-09-12T02:40:14;100308.31;;;19.21;65.00
50684;BME280;36654;45.042;38.994;2022-09-12T02:42:40;100323.28;;;19.30;65.04
50684;BME280;36654;45.042;38.994;2022-09-12T02:45:07;100314.44;;;19.26;65.05
50684;BME280;36654;45.042;38.994;2022-09-12T02:47:38;100319.63;;;19.32;64.93
50684;BME280;36654;45.042;38.994;2022-09-12T02:50:07;100324.06;;;19.33;64.54
50684;BME280;36654;45.042;38.994;2022-09-12T02:52:33;100305.38;;;19.29;64.56
50684;BME280;36654;45.042;38.994;2022-09-12T02:55:02;100302.56;;;19.33;64.69
50684;BME280;36654;45.042;38.994;2022-09-12T02:57:29;100306.19;;;19.32;64.65
50684;BME280;36654;45.042;38.994;2022-09-12T02:59:58;100299.91;;;19.32;64.62
50684;BME280;36654;45.042;38.994;2022-09-12T03:05:23;100302.69;;;19.29;64.68
50684;BME280;36654;45.042;38.994;2022-09-12T03:10:50;100321.63;;;19.26;64.61
50684;BME280;36654;45.042;38.994;2022-09-12T03:16:17;100331.59;;;19.22;64.79
50684;BME280;36654;45.042;38.994;2022-09-12T03:19:00;100314.88;;;19.12;64.52
50684;BME280;36654;45.042;38.994;2022-09-12T03:27:14;100324.69;;;19.13;64.24
50684;BME280;36654;45.042;38.994;2022-09-12T03:29:42;100346.81;;;19.22;64.50
50684;BME280;36654;45.042;38.994;2022-09-12T03:32:10;100304.59;;;18.97;64.26
50684;BME280;36654;45.042;38.994;2022-09-12T03:34:36;100343.25;;;19.21;64.33
50684;BME280;36654;45.042;38.994;2022-09-12T03:37:01;100304.50;;;19.00;64.38
50684;BME280;36654;45.042;38.994;2022-09-12T03:39:27;100350.94;;;19.61;63.99
50684;BME280;36654;45.042;38.994;2022-09-12T03:41:54;100339.00;;;19.98;62.58
50684;BME280;36654;45.042;38.994;2022-09-12T03:44:20;100335.78;;;20.14;61.27
50684;BME280;36654;45.042;38.994;2022-09-12T03:46:46;100322.25;;;20.17;61.21
50684;BME280;36654;45.042;38.994;2022-09-12T03:49:12;100296.09;;;20.45;60.55
50684;BME280;36654;45.042;38.994;2022-09-12T03:51:38;100324.63;;;21.00;58.97
50684;BME280;36654;45.042;38.994;2022-09-12T03:54:04;100324.84;;;21.41;57.64
50684;BME280;36654;45.042;38.994;2022-09-12T03:56:30;100316.16;;;21.76;56.35
50684;BME280;36654;45.042;38.994;2022-09-12T03:58:56;100289.72;;;22.07;54.89
50684;BME280;36654;45.042;38.994;2022-09-12T04:01:22;100347.25;;;22.70;53.60
50684;BME280;36654;45.042;38.994;2022-09-12T04:03:50;100350.16;;;22.66;53.16
50684;BME280;36654;45.042;38.994;2022-09-12T04:06:18;100353.41;;;22.33;53.70
50684;BME280;36654;45.042;38.994;2022-09-12T04:08:50;100338.63;;;21.99;54.47
50684;BME280;36654;45.042;38.994;2022-09-12T04:11:18;100354.28;;;22.11;54.65
50684;BME280;36654;45.042;38.994;2022-09-12T04:13:44;100339.38;;;22.03;54.34
50684;BME280;36654;45.042;38.994;2022-09-12T04:16:12;100305.91;;;22.07;53.98
50684;BME280;36654;45.042;38.994;2022-09-12T04:18:39;100344.19;;;22.78;53.01
50684;BME280;36654;45.042;38.994;2022-09-12T04:21:10;100345.47;;;23.29;51.54
50684;BME280;36654;45.042;38.994;2022-09-12T04:23:36;100340.47;;;23.77;50.03
50684;BME280;36654;45.042;38.994;2022-09-12T04:26:03;100333.00;;;23.82;49.66
50684;BME280;36654;45.042;38.994;2022-09-12T04:28:32;100335.59;;;23.83;49.62
50684;BME280;36654;45.042;38.994;2022-09-12T04:31:11;100330.38;;;23.42;50.18
50684;BME280;36654;45.042;38.994;2022-09-12T04:33:37;100335.22;;;23.17;50.90
50684;BME280;36654;45.042;38.994;2022-09-12T04:36:07;100326.97;;;23.20;50.86
50684;BME280;36654;45.042;38.994;2022-09-12T04:38:34;100341.31;;;23.58;50.39
50684;BME280;36654;45.042;38.994;2022-09-12T04:41:00;100339.31;;;23.44;50.62
50684;BME280;36654;45.042;38.994;2022-09-12T04:43:26;100329.66;;;23.20;51.25
50684;BME280;36654;45.042;38.994;2022-09-12T04:45:52;100322.00;;;22.90;51.67
50684;BME280;36654;45.042;38.994;2022-09-12T04:48:18;100300.81;;;22.62;51.90
50684;BME280;36654;45.042;38.994;2022-09-12T04:50:43;100349.19;;;22.87;52.64
50684;BME280;36654;45.042;38.994;2022-09-12T04:53:09;100333.41;;;23.17;51.93
50684;BME280;36654;45.042;38.994;2022-09-12T04:55:34;100318.31;;;23.50;51.11
50684;BME280;36654;45.042;38.994;2022-09-12T04:58:00;100334.16;;;23.76;50.23
50684;BME280;36654;45.042;38.994;2022-09-12T05:00:26;100327.41;;;23.66;50.71
50684;BME280;36654;45.042;38.994;2022-09-12T05:02:52;100323.38;;;23.38;51.41
50684;BME280;36654;45.042;38.994;2022-09-12T05:05:18;100328.34;;;23.29;51.77
50684;BME280;36654;45.042;38.994;2022-09-12T05:07:43;100295.41;;;23.01;52.18
50684;BME280;36654;45.042;38.994;2022-09-12T05:10:09;100326.53;;;23.10;52.46
50684;BME280;36654;45.042;38.994;2022-09-12T05:12:35;100328.22;;;22.92;53.30
50684;BME280;36654;45.042;38.994;2022-09-12T05:15:01;100276.75;;;22.56;53.78
50684;BME280;36654;45.042;38.994;2022-09-12T05:17:29;100298.97;;;22.63;54.42
50684;BME280;36654;45.042;38.994;2022-09-12T05:19:55;100332.19;;;22.65;54.43
50684;BME280;36654;45.042;38.994;2022-09-12T05:22:21;100327.47;;;22.70;54.58
50684;BME280;36654;45.042;38.994;2022-09-12T05:24:47;100320.94;;;22.74;54.22
50684;BME280;36654;45.042;38.994;2022-09-12T05:27:13;100325.44;;;22.75;54.01
50684;BME280;36654;45.042;38.994;2022-09-12T05:29:38;100318.25;;;22.74;54.17
50684;BME280;36654;45.042;38.994;2022-09-12T05:32:04;100329.47;;;22.85;53.73
50684;BME280;36654;45.042;38.994;2022-09-12T05:34:30;100319.47;;;22.87;53.31
50684;BME280;36654;45.042;38.994;2022-09-12T05:36:55;100345.59;;;23.07;53.38
50684;BME280;36654;45.042;38.994;2022-09-12T05:39:21;100342.28;;;23.00;53.42
50684;BME280;36654;45.042;38.994;2022-09-12T05:41:47;100340.78;;;22.93;53.02
50684;BME280;36654;45.042;38.994;2022-09-12T05:44:13;100352.56;;;22.92;53.35
50684;BME280;36654;45.042;38.994;2022-09-12T05:46:43;100359.56;;;22.96;53.53
50684;BME280;36654;45.042;38.994;2022-09-12T05:49:15;100327.84;;;22.81;53.23
50684;BME280;36654;45.042;38.994;2022-09-12T05:51:43;100322.16;;;22.87;52.80
50684;BME280;36654;45.042;38.994;2022-09-12T05:54:12;100329.31;;;22.88;53.17
50684;BME280;36654;45.042;38.994;2022-09-12T05:56:40;100331.66;;;22.96;53.05
50684;BME280;36654;45.042;38.994;2022-09-12T06:01:36;100336.97;;;23.18;52.50
50684;BME280;36654;45.042;38.994;2022-09-12T06:04:04;100295.13;;;22.87;52.27
50684;BME280;36654;45.042;38.994;2022-09-12T06:06:34;100329.94;;;23.14;52.47
50684;BME280;36654;45.042;38.994;2022-09-12T06:09:00;100313.72;;;23.14;51.63
50684;BME280;36654;45.042;38.994;2022-09-12T06:11:30;100332.06;;;23.26;52.19
50684;BME280;36654;45.042;38.994;2022-09-12T06:13:58;100340.91;;;23.48;52.10
50684;BME280;36654;45.042;38.994;2022-09-12T06:16:27;100335.41;;;23.69;51.40
50684;BME280;36654;45.042;38.994;2022-09-12T06:18:55;100324.50;;;23.89;51.39
50684;BME280;36654;45.042;38.994;2022-09-12T06:21:22;100314.94;;;24.00;51.21
50684;BME280;36654;45.042;38.994;2022-09-12T06:23:49;100328.31;;;24.20;50.85
50684;BME280;36654;45.042;38.994;2022-09-12T06:26:16;100336.22;;;24.25;50.50
50684;BME280;36654;45.042;38.994;2022-09-12T06:28:46;100327.13;;;24.26;49.96
50684;BME280;36654;45.042;38.994;2022-09-12T06:31:19;100324.34;;;24.27;49.64
50684;BME280;36654;45.042;38.994;2022-09-12T06:33:48;100325.16;;;24.29;49.63
50684;BME280;36654;45.042;38.994;2022-09-12T06:36:19;100311.91;;;24.23;49.14
50684;BME280;36654;45.042;38.994;2022-09-12T06:38:46;100318.94;;;24.27;49.05
50684;BME280;36654;45.042;38.994;2022-09-12T06:41:13;100309.53;;;24.35;48.26
50684;BME280;36654;45.042;38.994;2022-09-12T06:43:40;100276.06;;;24.18;47.44
50684;BME280;36654;45.042;38.994;2022-09-12T06:46:07;100193.78;;;23.87;47.21
50684;BME280;36654;45.042;38.994;2022-09-12T06:48:33;100312.84;;;24.74;47.29
50684;BME280;36654;45.042;38.994;2022-09-12T06:51:00;100312.06;;;24.88;46.41
50684;BME280;36654;45.042;38.994;2022-09-12T06:53:27;100313.28;;;24.83;46.06
50684;BME280;36654;45.042;38.994;2022-09-12T06:56:03;100310.75;;;24.80;46.58
50684;BME280;36654;45.042;38.994;2022-09-12T06:58:30;100294.66;;;24.77;45.91
50684;BME280;36654;45.042;38.994;2022-09-12T07:01:06;100312.19;;;25.03;45.32
50684;BME280;36654;45.042;38.994;2022-09-12T07:03:33;100316.38;;;25.08;44.93
50684;BME280;36654;45.042;38.994;2022-09-12T07:06:03;100270.91;;;24.82;44.91
50684;BME280;36654;45.042;38.994;2022-09-12T07:08:29;100306.09;;;24.99;45.29
50684;BME280;36654;45.042;38.994;2022-09-12T07:10:56;100312.13;;;25.04;45.31
50684;BME280;36654;45.042;38.994;2022-09-12T07:13:23;100325.50;;;25.07;44.68
50684;BME280;36654;45.042;38.994;2022-09-12T07:15:49;100314.59;;;25.09;44.16
50684;BME280;36654;45.042;38.994;2022-09-12T07:18:16;100312.00;;;25.06;44.29
50684;BME280;36654;45.042;38.994;2022-09-12T07:20:42;100314.84;;;25.04;44.37
50684;BME280;36654;45.042;38.994;2022-09-12T07:23:08;100298.53;;;24.88;44.25
50684;BME280;36654;45.042;38.994;2022-09-12T07:25:34;100297.22;;;24.80;44.54
50684;BME280;36654;45.042;38.994;2022-09-12T07:27:59;100289.38;;;24.73;44.31
50684;BME280;36654;45.042;38.994;2022-09-12T07:30:25;100264.34;;;24.52;44.36
50684;BME280;36654;45.042;38.994;2022-09-12T07:32:52;100274.50;;;24.49;44.64
50684;BME280;36654;45.042;38.994;2022-09-12T07:35:19;100292.13;;;24.56;44.70
50684;BME280;36654;45.042;38.994;2022-09-12T07:37:45;100294.22;;;24.51;44.46
50684;BME280;36654;45.042;38.994;2022-09-12T07:40:10;100294.22;;;24.51;44.81
50684;BME280;36654;45.042;38.994;2022-09-12T07:42:36;100283.88;;;24.42;44.94
50684;BME280;36654;45.042;38.994;2022-09-12T07:45:02;100229.56;;;24.10;45.00
50684;BME280;36654;45.042;38.994;2022-09-12T07:47:28;100271.38;;;24.39;45.01
50684;BME280;36654;45.042;38.994;2022-09-12T07:49:54;100234.00;;;24.28;45.02
50684;BME280;36654;45.042;38.994;2022-09-12T07:52:19;100271.38;;;24.57;44.19
50684;BME280;36654;45.042;38.994;2022-09-12T07:54:45;100256.16;;;24.54;44.32
50684;BME280;36654;45.042;38.994;2022-09-12T07:57:11;100256.47;;;24.48;44.38
50684;BME280;36654;45.042;38.994;2022-09-12T07:59:36;100256.78;;;24.42;44.55
50684;BME280;36654;45.042;38.994;2022-09-12T08:02:12;100259.19;;;24.30;45.01
50684;BME280;36654;45.042;38.994;2022-09-12T08:04:40;100252.66;;;24.17;45.36
50684;BME280;36654;45.042;38.994;2022-09-12T08:07:09;100221.22;;;24.15;45.24
50684;BME280;36654;45.042;38.994;2022-09-12T08:09:35;100232.53;;;24.05;46.12
50684;BME280;36654;45.042;38.994;2022-09-12T08:12:01;100216.63;;;23.82;46.61
50684;BME280;36654;45.042;38.994;2022-09-12T08:14:26;100241.78;;;23.84;47.04
50684;BME280;36654;45.042;38.994;2022-09-12T08:16:52;100177.03;;;23.44;47.53
50684;BME280;36654;45.042;38.994;2022-09-12T08:19:18;100233.25;;;23.74;48.73
50684;BME280;36654;45.042;38.994;2022-09-12T08:21:44;100236.09;;;23.88;49.75
50684;BME280;36654;45.042;38.994;2022-09-12T08:24:10;100240.47;;;23.91;50.09
50684;BME280;36654;45.042;38.994;2022-09-12T08:26:36;100232.28;;;23.93;50.71
50684;BME280;36654;45.042;38.994;2022-09-12T08:29:02;100238.97;;;24.03;50.85
50684;BME280;36654;45.042;38.994;2022-09-12T08:31:29;100231.47;;;24.08;52.38
50684;BME280;36654;45.042;38.994;2022-09-12T08:34:04;100230.53;;;24.09;49.39
50684;BME280;36654;45.042;38.994;2022-09-12T08:36:30;100209.66;;;24.11;48.12
50684;BME280;36654;45.042;38.994;2022-09-12T08:39:02;100216.28;;;24.05;48.27
50684;BME280;36654;45.042;38.994;2022-09-12T08:41:35;100169.88;;;23.78;48.41
50684;BME280;36654;45.042;38.994;2022-09-12T08:44:38;100214.31;;;24.09;48.64
50684;BME280;36654;45.042;38.994;2022-09-12T08:53:02;100194.72;;;24.37;48.54
50684;BME280;36654;45.042;38.994;2022-09-12T08:55:46;100204.31;;;24.76;49.58
50684;BME280;36654;45.042;38.994;2022-09-12T08:58:26;100204.28;;;25.09;49.28
50684;BME280;36654;45.042;38.994;2022-09-12T09:01:07;100195.88;;;25.30;47.82
50684;BME280;36654;45.042;38.994;2022-09-12T09:14:41;100228.75;;;24.92;46.00
50684;BME280;36654;45.042;38.994;2022-09-12T09:17:21;100200.25;;;24.85;46.39
50684;BME280;36654;45.042;38.994;2022-09-12T09:19:58;100200.41;;;24.97;45.66
50684;BME280;36654;45.042;38.994;2022-09-12T09:22:45;100213.28;;;25.10;46.96
50684;BME280;36654;45.042;38.994;2022-09-12T09:25:34;100217.03;;;25.07;46.84
50684;BME280;36654;45.042;38.994;2022-09-12T09:28:13;100216.84;;;25.10;47.05
50684;BME280;36654;45.042;38.994;2022-09-12T09:30:42;100205.81;;;25.13;47.40
50684;BME280;36654;45.042;38.994;2022-09-12T09:33:17;100203.22;;;25.28;47.14
50684;BME280;36654;45.042;38.994;2022-09-12T09:35:46;100198.84;;;25.41;46.70
50684;BME280;36654;45.042;38.994;2022-09-12T09:43:50;100160.19;;;25.22;46.00
50684;BME280;36654;45.042;38.994;2022-09-12T09:46:15;100182.06;;;25.18;46.13
50684;BME280;36654;45.042;38.994;2022-09-12T09:48:45;100190.91;;;25.06;46.33
50684;BME280;36654;45.042;38.994;2022-09-12T09:51:15;100222.59;;;25.22;46.49
50684;BME280;36654;45.042;38.994;2022-09-12T09:54:22;100224.56;;;25.18;46.63
50684;BME280;36654;45.042;38.994;2022-09-12T09:56:49;100196.22;;;24.92;46.54
50684;BME280;36654;45.042;38.994;2022-09-12T09:59:29;100243.78;;;25.13;46.79
50684;BME280;36654;45.042;38.994;2022-09-12T10:02:15;100241.06;;;25.13;46.54
50684;BME280;36654;45.042;38.994;2022-09-12T10:04:55;100217.41;;;25.01;46.15
50684;BME280;36654;45.042;38.994;2022-09-12T10:07:22;100233.72;;;25.15;46.13
50684;BME280;36654;45.042;38.994;2022-09-12T10:10:14;100236.81;;;25.25;45.94
50684;BME280;36654;45.042;38.994;2022-09-12T10:12:40;100231.22;;;25.28;45.65
50684;BME280;36654;45.042;38.994;2022-09-12T10:15:21;100237.69;;;25.26;45.64
50684;BME280;36654;45.042;38.994;2022-09-12T10:17:49;100202.00;;;25.17;45.84
50684;BME280;36654;45.042;38.994;2022-09-12T10:20:37;100230.78;;;25.36;45.68
50684;BME280;36654;45.042;38.994;2022-09-12T10:23:33;100223.00;;;25.30;45.40
50684;BME280;36654;45.042;38.994;2022-09-12T10:26:04;100210.94;;;25.20;46.02
50684;BME280;36654;45.042;38.994;2022-09-12T10:28:37;100210.75;;;25.23;46.01
50684;BME280;36654;45.042;38.994;2022-09-12T10:31:09;100210.56;;;25.26;45.78
50684;BME280;36654;45.042;38.994;2022-09-12T10:33:45;100208.19;;;25.35;45.53
50684;BME280;36654;45.042;38.994;2022-09-12T10:36:17;100176.97;;;25.12;45.44
50684;BME280;36654;45.042;38.994;2022-09-12T10:38:57;100195.16;;;25.42;45.68
50684;BME280;36654;45.042;38.994;2022-09-12T10:41:25;100212.38;;;25.57;45.58
50684;BME280;36654;45.042;38.994;2022-09-12T10:43:51;100192.31;;;25.59;45.77
50684;BME280;36654;45.042;38.994;2022-09-12T10:48:43;100208.53;;;25.61;45.91
50684;BME280;36654;45.042;38.994;2022-09-12T10:53:56;100188.66;;;25.75;45.00
50684;BME280;36654;45.042;38.994;2022-09-12T10:56:30;100207.94;;;25.86;45.94
50684;BME280;36654;45.042;38.994;2022-09-12T11:01:44;100204.75;;;25.64;47.13
50684;BME280;36654;45.042;38.994;2022-09-12T11:18:11;100196.94;;;25.11;47.56
50684;BME280;36654;45.042;38.994;2022-09-12T11:23:36;100139.19;;;24.46;48.18
50684;BME280;36654;45.042;38.994;2022-09-12T11:26:22;100190.53;;;24.81;48.62
50684;BME280;36654;45.042;38.994;2022-09-12T11:35:03;100186.16;;;24.62;49.14
50684;BME280;36654;45.042;38.994;2022-09-12T11:40:33;100179.31;;;24.55;49.44
50684;BME280;36654;45.042;38.994;2022-09-12T11:43:54;100168.91;;;24.63;49.82
50684;BME280;36654;45.042;38.994;2022-09-12T11:46:00;100152.94;;;24.74;49.42
50684;BME280;36654;45.042;38.994;2022-09-12T11:48:39;100157.06;;;24.82;49.54
50684;BME280;36654;45.042;38.994;2022-09-12T11:51:19;100166.13;;;24.81;49.82
50684;BME280;36654;45.042;38.994;2022-09-12T11:53:59;100162.63;;;24.79;49.13
50684;BME280;36654;45.042;38.994;2022-09-12T11:56:26;100140.69;;;24.67;49.57
50684;BME280;36654;45.042;38.994;2022-09-12T11:58:58;100150.75;;;24.81;49.13
50684;BME280;36654;45.042;38.994;2022-09-12T12:01:31;100132.13;;;24.75;49.16
50684;BME280;36654;45.042;38.994;2022-09-12T12:04:06;100139.91;;;24.81;49.19
50684;BME280;36654;45.042;38.994;2022-09-12T12:06:44;100133.25;;;24.87;49.01
50684;BME280;36654;45.042;38.994;2022-09-12T12:09:11;100131.84;;;24.95;49.06
50684;BME280;36654;45.042;38.994;2022-09-12T12:11:42;100116.75;;;24.91;48.66
50684;BME280;36654;45.042;38.994;2022-09-12T12:14:19;100101.06;;;24.81;48.97
50684;BME280;36654;45.042;38.994;2022-09-12T12:16:46;100121.59;;;25.01;49.16
50684;BME280;36654;45.042;38.994;2022-09-12T12:21:46;100119.41;;;25.07;49.18
50684;BME280;36654;45.042;38.994;2022-09-12T12:27:03;100092.16;;;24.94;49.14
50684;BME280;36654;45.042;38.994;2022-09-12T12:29:37;100030.31;;;24.55;49.17
50684;BME280;36654;45.042;38.994;2022-09-12T12:34:37;100094.94;;;24.93;49.41
50684;BME280;36654;45.042;38.994;2022-09-12T12:44:59;100089.53;;;24.93;50.26
50684;BME280;36654;45.042;38.994;2022-09-12T12:49:59;100091.81;;;24.85;50.40
50684;BME280;36654;45.042;38.994;2022-09-12T12:52:29;100039.28;;;24.56;50.39
50684;BME280;36654;45.042;38.994;2022-09-12T12:54:58;100082.38;;;24.76;50.59
50684;BME280;36654;45.042;38.994;2022-09-12T13:02:55;100082.03;;;24.82;50.55
50684;BME280;36654;45.042;38.994;2022-09-12T13:05:23;100069.25;;;24.84;50.46
50684;BME280;36654;45.042;38.994;2022-09-12T13:08:06;100044.59;;;24.73;50.56
50684;BME280;36654;45.042;38.994;2022-09-12T13:10:34;100054.53;;;24.88;50.55
50684;BME280;36654;45.042;38.994;2022-09-12T13:13:03;100060.88;;;24.89;50.68
50684;BME280;36654;45.042;38.994;2022-09-12T13:18:26;100050.78;;;24.91;50.64
50684;BME280;36654;45.042;38.994;2022-09-12T13:20:55;100061.81;;;24.88;50.50
50684;BME280;36654;45.042;38.994;2022-09-12T13:23:27;100061.22;;;24.83;50.05
50684;BME280;36654;45.042;38.994;2022-09-12T13:25:56;100068.41;;;24.84;50.18
50684;BME280;36654;45.042;38.994;2022-09-12T13:28:22;100064.72;;;24.85;50.16
50684;BME280;36654;45.042;38.994;2022-09-12T13:33:55;100039.00;;;24.76;49.99
50684;BME280;36654;45.042;38.994;2022-09-12T13:37:00;100048.44;;;24.85;49.90
50684;BME280;36654;45.042;38.994;2022-09-12T13:42:51;100059.28;;;24.85;50.08
50684;BME280;36654;45.042;38.994;2022-09-12T13:45:25;100061.22;;;24.83;49.84
50684;BME280;36654;45.042;38.994;2022-09-12T13:47:59;100054.84;;;24.84;49.24
50684;BME280;36654;45.042;38.994;2022-09-12T13:50:30;100046.72;;;24.84;49.77
50684;BME280;36654;45.042;38.994;2022-09-12T13:53:01;100041.28;;;24.84;49.05
50684;BME280;36654;45.042;38.994;2022-09-12T13:58:02;100032.25;;;24.83;49.21
50684;BME280;36654;45.042;38.994;2022-09-12T14:00:30;100043.03;;;24.85;49.12
50684;BME280;36654;45.042;38.994;2022-09-12T14:02:57;100037.69;;;24.83;49.29
50684;BME280;36654;45.042;38.994;2022-09-12T14:05:44;100050.19;;;24.86;49.44
50684;BME280;36654;45.042;38.994;2022-09-12T14:08:12;100046.88;;;24.81;49.29
50684;BME280;36654;45.042;38.994;2022-09-12T14:10:43;100057.72;;;24.81;49.42
50684;BME280;36654;45.042;38.994;2022-09-12T14:13:29;100038.72;;;24.81;49.47
50684;BME280;36654;45.042;38.994;2022-09-12T14:15:56;100022.25;;;24.69;49.93
50684;BME280;36654;45.042;38.994;2022-09-12T14:18:28;100034.28;;;24.80;49.98
50684;BME280;36654;45.042;38.994;2022-09-12T14:20:55;100027.09;;;24.79;50.31
50684;BME280;36654;45.042;38.994;2022-09-12T14:25:54;100022.06;;;24.72;50.42
50684;BME280;36654;45.042;38.994;2022-09-12T14:28:21;100014.19;;;24.68;50.23
50684;BME280;36654;45.042;38.994;2022-09-12T14:31:05;100004.59;;;24.62;50.33
50684;BME280;36654;45.042;38.994;2022-09-12T14:33:48;99945.38;;;24.24;50.38
50684;BME280;36654;45.042;38.994;2022-09-12T14:38:43;100018.50;;;24.56;50.09
50684;BME280;36654;45.042;38.994;2022-09-12T14:41:12;100015.78;;;24.56;49.43
50684;BME280;36654;45.042;38.994;2022-09-12T14:43:43;100031.88;;;24.59;49.30
50684;BME280;36654;45.042;38.994;2022-09-12T14:46:19;100003.41;;;24.52;48.59
50684;BME280;36654;45.042;38.994;2022-09-12T14:48:53;99988.41;;;24.45;48.97
50684;BME280;36654;45.042;38.994;2022-09-12T14:51:38;99996.03;;;24.38;49.69
50684;BME280;36654;45.042;38.994;2022-09-12T14:54:05;99980.66;;;24.07;50.51
50684;BME280;36654;45.042;38.994;2022-09-12T14:56:42;99988.19;;;24.02;50.57
50684;BME280;36654;45.042;38.994;2022-09-12T14:59:28;99993.59;;;24.02;50.64
50684;BME280;36654;45.042;38.994;2022-09-12T15:04:44;99953.56;;;23.75;50.96
50684;BME280;36654;45.042;38.994;2022-09-12T15:09:40;99988.69;;;23.93;51.38
50684;BME280;36654;45.042;38.994;2022-09-12T15:12:08;99928.03;;;23.63;52.49
50684;BME280;36654;45.042;38.994;2022-09-12T15:14:34;99976.28;;;23.88;53.52
50684;BME280;36654;45.042;38.994;2022-09-12T15:17:00;99993.72;;;23.83;53.66
50684;BME280;36654;45.042;38.994;2022-09-12T15:19:26;99990.34;;;23.79;54.04